Time;durP1;ratioP1;P1;durP2;ratioP2;P2;SDS_P1;SDS_P2;PMS_P1;PMS_P2;Temp;Humidity;BMP_temperature;BMP_pressure;BME280_temperature;BME280_humidity;BME280_pressure;Samples;Min_cycle;Max_cycle;Signal;HPM_P1;HPM_P2
2021/09/03 00:00:52;;;;;;;13.83;12.40;;;13.40;99.90;;;;;;4972654;28;20232;-49
2021/09/03 00:03:18;;;;;;;15.20;13.60;;;13.30;99.90;;;;;;4971098;28;20191;-52
2021/09/03 00:05:43;;;;;;;14.17;12.83;;;13.30;99.90;;;;;;4970961;28;20203;-47
2021/09/03 00:08:09;;;;;;;15.13;13.53;;;13.30;99.90;;;;;;4970301;28;20209;-48
2021/09/03 00:10:35;;;;;;;14.50;13.00;;;13.20;99.90;;;;;;4969686;28;20641;-53
2021/09/03 00:13:00;;;;;;;16.80;13.90;;;13.30;99.90;;;;;;4970651;28;20193;-49
2021/09/03 00:15:26;;;;;;;15.27;13.63;;;13.30;99.90;;;;;;4971628;28;20671;-50
2021/09/03 00:17:52;;;;;;;14.67;13.00;;;13.30;99.90;;;;;;4971602;28;20208;-52
2021/09/03 00:20:17;;;;;;;15.17;13.63;;;13.30;99.90;;;;;;4968784;28;20224;-50
2021/09/03 00:22:44;;;;;;;17.33;13.90;;;13.30;99.90;;;;;;4971769;28;20192;-54
2021/09/03 00:25:10;;;;;;;15.77;14.00;;;13.20;99.90;;;;;;4970788;28;20193;-52
2021/09/03 00:27:37;;;;;;;15.50;13.90;;;13.20;99.90;;;;;;4971159;28;20554;-50
2021/09/03 00:30:04;;;;;;;13.70;12.30;;;13.10;99.90;;;;;;4969317;28;20800;-49
2021/09/03 00:32:29;;;;;;;16.77;13.90;;;13.10;99.90;;;;;;4971217;28;20803;-52
2021/09/03 00:34:55;;;;;;;17.43;13.23;;;13.00;99.90;;;;;;4969365;28;20436;-51
2021/09/03 00:37:20;;;;;;;15.93;13.40;;;13.00;99.90;;;;;;4970978;28;20184;-54
2021/09/03 00:39:46;;;;;;;15.60;13.80;;;13.00;99.90;;;;;;4963642;28;20205;-52
2021/09/03 00:42:12;;;;;;;14.10;12.60;;;13.00;99.90;;;;;;4952675;28;20189;-55
2021/09/03 00:44:38;;;;;;;15.27;13.47;;;13.00;99.90;;;;;;4961575;28;20189;-50
2021/09/03 00:47:04;;;;;;;15.00;13.17;;;13.00;99.90;;;;;;4970275;28;20472;-52
2021/09/03 00:49:30;;;;;;;13.83;12.43;;;12.90;99.90;;;;;;4970146;28;20507;-49
2021/09/03 00:51:56;;;;;;;14.50;12.90;;;12.90;99.90;;;;;;4969910;28;20189;-47
2021/09/03 00:54:21;;;;;;;14.47;12.97;;;12.90;99.90;;;;;;4963965;28;20208;-57
2021/09/03 00:56:47;;;;;;;15.60;13.70;;;12.90;99.90;;;;;;4970795;28;20432;-52
2021/09/03 00:59:13;;;;;;;14.50;13.07;;;12.80;99.90;;;;;;4970156;28;20228;-53
2021/09/03 01:01:39;;;;;;;14.40;13.00;;;12.90;99.90;;;;;;4969987;28;20460;-52
2021/09/03 01:04:04;;;;;;;15.40;13.20;;;12.80;99.90;;;;;;4969999;28;20437;-53
2021/09/03 01:06:30;;;;;;;15.00;13.50;;;12.80;99.90;;;;;;4961326;28;20448;-50
2021/09/03 01:09:30;;;;;;;13.90;12.47;;;12.80;99.90;;;;;;4963076;28;20266;-54
2021/09/03 01:11:56;;;;;;;13.80;12.40;;;12.70;99.90;;;;;;4969156;28;20432;-50
2021/09/03 01:14:23;;;;;;;13.63;12.23;;;12.70;99.90;;;;;;4970145;28;20751;-50
2021/09/03 01:16:49;;;;;;;13.00;11.30;;;12.70;99.90;;;;;;4969445;28;20192;-51
2021/09/03 01:19:14;;;;;;;14.43;12.90;;;12.70;99.90;;;;;;4964763;28;21002;-56
2021/09/03 01:21:40;;;;;;;14.17;12.20;;;12.70;99.90;;;;;;4969754;28;20192;-53
2021/09/03 01:24:05;;;;;;;13.53;12.03;;;12.70;99.90;;;;;;4969949;28;20228;-56
2021/09/03 01:26:31;;;;;;;14.57;13.07;;;12.60;99.90;;;;;;4968755;28;20193;-51
2021/09/03 01:28:57;;;;;;;20.40;13.33;;;12.60;99.90;;;;;;4969926;28;20187;-53
2021/09/03 01:31:23;;;;;;;13.53;12.10;;;12.60;99.90;;;;;;4968007;28;20463;-52
2021/09/03 01:33:49;;;;;;;14.50;13.10;;;12.60;99.90;;;;;;4970643;28;20193;-53
2021/09/03 01:36:14;;;;;;;14.63;13.07;;;12.60;99.90;;;;;;4968317;28;20818;-53
2021/09/03 01:38:42;;;;;;;14.40;12.67;;;12.60;99.90;;;;;;4953329;28;20429;-52
2021/09/03 01:41:07;;;;;;;13.60;12.20;;;12.50;99.90;;;;;;4961790;28;20328;-49
2021/09/03 01:43:33;;;;;;;14.43;12.93;;;12.50;99.90;;;;;;4973123;28;20891;-49
2021/09/03 01:45:58;;;;;;;15.60;13.77;;;12.50;99.90;;;;;;4970952;28;20949;-52
2021/09/03 01:48:24;;;;;;;16.63;12.80;;;12.50;99.90;;;;;;4973570;28;20224;-53
2021/09/03 01:50:50;;;;;;;14.00;12.20;;;12.50;99.90;;;;;;4974220;28;20181;-51
2021/09/03 01:53:15;;;;;;;16.27;14.53;;;12.50;99.90;;;;;;4973479;28;20200;-49
2021/09/03 01:55:41;;;;;;;14.20;12.70;;;12.50;99.90;;;;;;4973819;28;20543;-52
2021/09/03 01:58:06;;;;;;;14.43;12.83;;;12.50;99.90;;;;;;4972960;28;20199;-49
2021/09/03 02:00:32;;;;;;;14.90;12.37;;;12.40;99.90;;;;;;4967676;28;20232;-51
2021/09/03 02:02:57;;;;;;;13.73;11.50;;;12.40;99.90;;;;;;4968266;28;20545;-50
2021/09/03 02:05:23;;;;;;;14.23;12.20;;;12.40;99.90;;;;;;4973217;28;20220;-54
2021/09/03 02:07:48;;;;;;;14.30;12.03;;;12.30;99.90;;;;;;4965052;28;20269;-50
2021/09/03 02:10:14;;;;;;;13.47;12.07;;;12.30;99.90;;;;;;4971122;28;20192;-49
2021/09/03 02:12:39;;;;;;;14.27;12.70;;;12.30;99.90;;;;;;4973505;28;20180;-49
2021/09/03 02:15:06;;;;;;;14.63;12.00;;;12.30;99.90;;;;;;4971996;28;20296;-53
2021/09/03 02:17:31;;;;;;;14.23;12.77;;;12.20;99.90;;;;;;4970975;28;20220;-54
2021/09/03 02:19:57;;;;;;;13.27;11.97;;;12.20;99.90;;;;;;4972759;28;20439;-49
2021/09/03 02:22:22;;;;;;;15.03;13.33;;;12.20;99.90;;;;;;4968338;28;20192;-51
2021/09/03 02:24:48;;;;;;;13.53;12.10;;;12.10;99.90;;;;;;4971232;28;20664;-50
2021/09/03 02:27:13;;;;;;;14.00;12.40;;;12.10;99.90;;;;;;4972310;28;20877;-53
2021/09/03 02:29:39;;;;;;;14.27;12.77;;;12.20;99.90;;;;;;4970817;28;20708;-48
2021/09/03 02:32:05;;;;;;;13.83;12.40;;;12.20;99.90;;;;;;4973414;28;20200;-49
2021/09/03 02:34:30;;;;;;;15.27;12.73;;;12.20;99.90;;;;;;4972748;28;20197;-51
2021/09/03 02:36:56;;;;;;;13.83;12.33;;;12.20;99.90;;;;;;4971748;28;20189;-52
2021/09/03 02:39:21;;;;;;;13.97;12.50;;;12.20;99.90;;;;;;4972793;28;20192;-49
2021/09/03 02:41:47;;;;;;;14.73;11.63;;;12.10;99.90;;;;;;4967995;28;20185;-49
2021/09/03 02:44:12;;;;;;;14.07;12.63;;;12.10;99.90;;;;;;4963600;28;20195;-51
2021/09/03 02:46:38;;;;;;;13.40;11.50;;;12.10;99.90;;;;;;4971895;28;20248;-49
2021/09/03 02:49:04;;;;;;;16.27;12.50;;;12.00;99.90;;;;;;4987971;28;20991;-51
2021/09/03 02:51:29;;;;;;;13.40;12.00;;;12.00;99.90;;;;;;4973244;28;20660;-48
2021/09/03 02:53:55;;;;;;;13.43;11.73;;;12.00;99.90;;;;;;4969094;28;20451;-52
2021/09/03 02:56:21;;;;;;;13.03;11.63;;;12.00;99.90;;;;;;4972698;28;20255;-49
2021/09/03 02:58:46;;;;;;;13.27;11.83;;;11.90;99.90;;;;;;4972116;28;20614;-49
2021/09/03 03:01:12;;;;;;;12.70;11.40;;;11.90;99.90;;;;;;4972286;28;20227;-54
2021/09/03 03:03:37;;;;;;;13.13;11.23;;;11.90;99.90;;;;;;4972365;28;20197;-51
2021/09/03 03:06:03;;;;;;;12.20;11.00;;;11.90;99.90;;;;;;4972596;28;20188;-48
2021/09/03 03:08:29;;;;;;;13.80;12.30;;;11.80;99.90;;;;;;4970256;28;20212;-53
2021/09/03 03:10:54;;;;;;;12.80;11.50;;;11.80;99.90;;;;;;4972980;28;20187;-50
2021/09/03 03:13:21;;;;;;;13.13;11.83;;;11.90;99.90;;;;;;4970114;28;20185;-50
2021/09/03 03:15:48;;;;;;;13.43;12.13;;;11.90;99.90;;;;;;4972628;28;20177;-53
2021/09/03 03:18:13;;;;;;;13.70;12.30;;;11.80;99.90;;;;;;4967458;28;20792;-53
2021/09/03 03:20:39;;;;;;;13.03;11.63;;;11.80;99.90;;;;;;4972697;28;20416;-53
2021/09/03 03:23:05;;;;;;;14.33;12.73;;;11.80;99.90;;;;;;4971969;28;20185;-51
2021/09/03 03:25:30;;;;;;;13.27;11.33;;;11.80;99.90;;;;;;4971408;28;20304;-51
2021/09/03 03:27:56;;;;;;;13.30;11.57;;;11.80;99.90;;;;;;4971845;28;20213;-57
2021/09/03 03:30:21;;;;;;;14.33;12.40;;;11.70;99.90;;;;;;4972456;28;20173;-48
2021/09/03 03:32:47;;;;;;;13.90;11.30;;;11.70;99.90;;;;;;4971085;28;20271;-51
2021/09/03 03:35:12;;;;;;;15.70;11.50;;;11.80;99.90;;;;;;4972887;28;20176;-55
2021/09/03 03:37:38;;;;;;;14.43;11.87;;;11.70;99.90;;;;;;4970431;28;20196;-47
2021/09/03 03:40:04;;;;;;;12.83;10.73;;;11.60;99.90;;;;;;4972468;28;20208;-55
2021/09/03 03:42:29;;;;;;;12.60;10.50;;;11.60;99.90;;;;;;4971806;28;20248;-52
2021/09/03 03:44:55;;;;;;;11.83;10.37;;;11.60;99.90;;;;;;4971448;28;20432;-51
2021/09/03 03:47:21;;;;;;;14.03;11.47;;;11.60;99.90;;;;;;4970421;28;20739;-51
2021/09/03 03:49:46;;;;;;;13.33;11.10;;;11.50;99.90;;;;;;4962611;28;20231;-49
2021/09/03 03:52:12;;;;;;;12.17;10.97;;;11.50;99.90;;;;;;4970462;28;20188;-47
2021/09/03 03:54:37;;;;;;;11.00;9.70;;;11.50;99.90;;;;;;4970965;28;20191;-51
2021/09/03 03:57:03;;;;;;;14.37;10.77;;;11.50;99.90;;;;;;4971956;28;20340;-51
2021/09/03 03:59:30;;;;;;;13.17;9.63;;;11.50;99.90;;;;;;4968040;28;20492;-54
2021/09/03 04:01:56;;;;;;;16.50;11.30;;;11.50;99.90;;;;;;4971148;28;20195;-49
2021/09/03 04:04:21;;;;;;;12.10;10.30;;;11.50;99.90;;;;;;4969041;28;20440;-54
2021/09/03 04:06:48;;;;;;;13.83;10.63;;;11.50;99.90;;;;;;4969836;28;20247;-50
2021/09/03 04:09:14;;;;;;;19.13;11.53;;;11.50;99.90;;;;;;4969704;28;20448;-49
2021/09/03 04:11:41;;;;;;;13.50;10.63;;;11.50;99.90;;;;;;4970915;28;20192;-54
2021/09/03 04:14:07;;;;;;;14.90;10.10;;;11.50;99.90;;;;;;4971614;28;20179;-54
2021/09/03 04:16:33;;;;;;;20.90;11.70;;;11.50;99.90;;;;;;4970570;28;20476;-50
2021/09/03 04:18:58;;;;;;;14.90;11.60;;;11.50;99.90;;;;;;4968861;28;20471;-51
2021/09/03 04:21:24;;;;;;;11.60;10.40;;;11.50;99.90;;;;;;4965082;28;20192;-50
2021/09/03 04:23:49;;;;;;;16.67;10.80;;;11.50;99.90;;;;;;4962400;28;20193;-54
2021/09/03 04:26:15;;;;;;;12.60;10.60;;;11.50;99.90;;;;;;4962313;28;20189;-51
2021/09/03 04:28:40;;;;;;;12.13;10.30;;;11.60;99.90;;;;;;4962001;28;20251;-51
2021/09/03 04:31:06;;;;;;;14.70;11.87;;;11.60;99.90;;;;;;4961689;28;20201;-52
2021/09/03 04:33:31;;;;;;;15.97;12.10;;;11.60;99.90;;;;;;4961926;28;20204;-49
2021/09/03 04:35:57;;;;;;;12.87;11.50;;;11.60;99.90;;;;;;4961571;28;21096;-50
2021/09/03 04:38:22;;;;;;;23.13;11.13;;;11.60;99.90;;;;;;4961443;28;21068;-54
2021/09/03 04:40:48;;;;;;;15.00;11.67;;;11.60;99.90;;;;;;4961559;28;20203;-52
2021/09/03 04:43:14;;;;;;;15.80;11.53;;;11.70;99.90;;;;;;4959461;28;20307;-50
2021/09/03 04:45:39;;;;;;;14.50;11.47;;;11.60;99.90;;;;;;4967701;28;20284;-51
2021/09/03 04:48:05;;;;;;;12.47;11.10;;;11.60;99.90;;;;;;4970360;28;20216;-48
2021/09/03 04:50:30;;;;;;;14.37;10.83;;;11.60;99.90;;;;;;4968106;28;20189;-54
2021/09/03 04:52:56;;;;;;;13.40;11.53;;;11.60;99.90;;;;;;4970392;28;20200;-53
2021/09/03 04:55:21;;;;;;;14.90;12.20;;;11.60;99.90;;;;;;4970545;28;20640;-48
2021/09/03 04:57:47;;;;;;;13.53;12.00;;;11.70;99.90;;;;;;4971220;28;20180;-48
2021/09/03 05:00:16;;;;;;;13.00;11.30;;;11.70;99.90;;;;;;4969368;28;20262;-49
2021/09/03 05:02:42;;;;;;;15.30;11.77;;;11.70;99.90;;;;;;4970642;28;20204;-51
2021/09/03 05:05:08;;;;;;;12.47;11.10;;;11.80;99.90;;;;;;4985459;28;20767;-52
2021/09/03 05:07:34;;;;;;;14.03;11.40;;;11.80;99.90;;;;;;4970376;28;20236;-51
2021/09/03 05:10:00;;;;;;;13.67;11.53;;;11.90;99.90;;;;;;4970586;28;20439;-50
2021/09/03 05:12:25;;;;;;;12.20;10.90;;;11.80;99.90;;;;;;4968612;28;20532;-52
2021/09/03 05:14:51;;;;;;;15.03;12.50;;;11.70;99.90;;;;;;4970711;28;20180;-49
2021/09/03 05:17:17;;;;;;;12.40;10.93;;;11.80;99.90;;;;;;4970324;28;20173;-50
2021/09/03 05:19:42;;;;;;;19.03;11.70;;;11.80;99.90;;;;;;4969950;28;20177;-49
2021/09/03 05:22:08;;;;;;;14.20;11.50;;;11.80;99.90;;;;;;4969332;28;20193;-52
2021/09/03 05:24:33;;;;;;;18.53;12.27;;;11.80;99.90;;;;;;4970696;28;20185;-49
2021/09/03 05:26:59;;;;;;;16.27;12.10;;;11.80;99.90;;;;;;4969187;28;20205;-50
2021/09/03 05:29:24;;;;;;;14.27;11.57;;;11.80;99.90;;;;;;4970254;28;20264;-49
2021/09/03 05:31:50;;;;;;;15.37;12.33;;;11.80;99.90;;;;;;4970357;28;20659;-52
2021/09/03 05:34:16;;;;;;;16.30;12.30;;;11.80;99.90;;;;;;4970029;28;20718;-49
2021/09/03 05:36:41;;;;;;;13.80;12.10;;;11.90;99.90;;;;;;4969717;28;20748;-51
2021/09/03 05:39:07;;;;;;;16.07;11.70;;;11.90;99.90;;;;;;4963802;28;20193;-54
2021/09/03 05:41:32;;;;;;;15.07;12.03;;;12.00;99.90;;;;;;4964895;28;20189;-51
2021/09/03 05:43:58;;;;;;;14.93;11.90;;;12.00;99.90;;;;;;4970647;28;20248;-47
2021/09/03 05:46:23;;;;;;;15.80;12.87;;;12.10;99.90;;;;;;4969963;28;20243;-47
2021/09/03 05:48:49;;;;;;;13.57;12.17;;;12.10;99.90;;;;;;4967950;28;20240;-50
2021/09/03 05:51:14;;;;;;;14.20;12.70;;;12.00;99.90;;;;;;4966602;28;20177;-50
2021/09/03 05:53:40;;;;;;;14.67;13.13;;;12.00;99.90;;;;;;4967199;28;20196;-54
2021/09/03 05:56:06;;;;;;;13.87;12.37;;;12.10;99.90;;;;;;4964249;28;20208;-49
2021/09/03 05:58:35;;;;;;;15.73;13.03;;;12.10;99.90;;;;;;4967345;28;20201;-53
2021/09/03 06:01:00;;;;;;;14.80;13.10;;;12.30;99.90;;;;;;4969267;28;21114;-47
2021/09/03 06:03:26;;;;;;;14.70;12.37;;;12.40;99.90;;;;;;4970253;28;20423;-53
2021/09/03 06:05:51;;;;;;;14.00;12.27;;;12.40;99.90;;;;;;4972374;28;20205;-52
2021/09/03 06:08:17;;;;;;;15.60;11.90;;;12.50;99.90;;;;;;4970619;28;20181;-53
2021/09/03 06:10:42;;;;;;;13.77;12.33;;;12.60;99.90;;;;;;4970018;28;20570;-48
2021/09/03 06:13:08;;;;;;;15.23;12.27;;;12.60;99.90;;;;;;4969878;28;20185;-54
2021/09/03 06:15:34;;;;;;;14.67;11.17;;;12.70;99.90;;;;;;4970210;28;20189;-50
2021/09/03 06:17:59;;;;;;;16.57;12.10;;;12.60;99.90;;;;;;4970037;28;20213;-51
2021/09/03 06:20:25;;;;;;;18.20;13.27;;;12.60;99.90;;;;;;4968891;28;20230;-50
2021/09/03 06:22:50;;;;;;;13.57;12.17;;;12.50;99.90;;;;;;4970018;28;20203;-49
2021/09/03 06:25:16;;;;;;;15.57;12.27;;;12.60;99.90;;;;;;4968440;28;20185;-56
2021/09/03 06:27:42;;;;;;;13.47;11.63;;;12.70;99.90;;;;;;4971838;28;20200;-48
2021/09/03 06:30:09;;;;;;;15.13;13.13;;;12.80;99.90;;;;;;4972733;28;20677;-53
2021/09/03 06:32:35;;;;;;;13.50;11.63;;;12.90;99.90;;;;;;4972877;28;20184;-53
2021/09/03 06:35:02;;;;;;;12.40;11.10;;;12.90;99.90;;;;;;4973488;28;20470;-48
2021/09/03 06:37:30;;;;;;;12.73;11.40;;;13.00;99.90;;;;;;4971614;28;20486;-54
2021/09/03 06:39:56;;;;;;;11.90;10.70;;;13.10;99.90;;;;;;4973515;28;20479;-53
2021/09/03 06:42:23;;;;;;;11.90;10.70;;;13.20;99.90;;;;;;4968694;28;20803;-52
2021/09/03 06:44:48;;;;;;;13.00;11.60;;;13.30;99.90;;;;;;4967975;28;20828;-53
2021/09/03 06:47:16;;;;;;;11.23;10.20;;;13.40;99.90;;;;;;4973340;28;20467;-51
2021/09/03 06:49:42;;;;;;;11.93;10.70;;;13.50;99.90;;;;;;4973615;28;20243;-52
2021/09/03 06:52:09;;;;;;;11.37;10.17;;;13.60;99.90;;;;;;4972680;28;20503;-51
2021/09/03 06:54:36;;;;;;;11.07;9.97;;;13.50;99.90;;;;;;4972549;28;20483;-50
2021/09/03 06:57:02;;;;;;;11.90;10.80;;;13.60;99.90;;;;;;4974948;28;20867;-53
2021/09/03 06:59:27;;;;;;;12.27;11.03;;;13.80;99.90;;;;;;4971175;28;20491;-51
2021/09/03 07:01:54;;;;;;;11.17;10.07;;;13.80;99.90;;;;;;4970430;28;20904;-52
2021/09/03 07:04:20;;;;;;;11.43;10.37;;;13.80;99.90;;;;;;4973731;28;20942;-49
2021/09/03 07:06:46;;;;;;;11.70;10.60;;;13.90;99.90;;;;;;4974552;28;20420;-52
2021/09/03 07:09:11;;;;;;;11.43;10.33;;;14.00;99.90;;;;;;4972058;28;20268;-48
2021/09/03 07:11:37;;;;;;;12.60;11.30;;;13.90;99.90;;;;;;4971705;28;20511;-49
2021/09/03 07:14:03;;;;;;;11.80;10.17;;;13.90;99.90;;;;;;4974125;28;20188;-50
2021/09/03 07:16:29;;;;;;;11.43;10.33;;;14.00;99.90;;;;;;4965016;28;20269;-53
2021/09/03 07:18:56;;;;;;;12.20;10.87;;;14.10;99.90;;;;;;4965659;28;20551;-52
2021/09/03 07:21:23;;;;;;;12.40;11.17;;;14.20;99.90;;;;;;4974894;28;20433;-51
2021/09/03 07:23:49;;;;;;;11.70;10.60;;;14.20;99.90;;;;;;4973929;28;20463;-53
2021/09/03 07:26:14;;;;;;;11.73;10.60;;;14.30;99.90;;;;;;4975100;28;21073;-52
2021/09/03 07:28:40;;;;;;;12.10;10.90;;;14.30;99.90;;;;;;4973753;28;20217;-54
2021/09/03 07:31:06;;;;;;;11.87;10.67;;;14.30;99.90;;;;;;4974806;28;20424;-52
2021/09/03 07:33:31;;;;;;;12.30;10.30;;;14.40;99.90;;;;;;4973431;28;20185;-54
2021/09/03 07:35:57;;;;;;;11.47;10.37;;;14.60;99.90;;;;;;4975259;28;20188;-51
2021/09/03 07:38:22;;;;;;;11.57;10.40;;;14.80;99.90;;;;;;4974556;28;20601;-51
2021/09/03 07:40:48;;;;;;;10.87;9.73;;;15.00;99.90;;;;;;4975012;28;20185;-51
2021/09/03 07:43:15;;;;;;;10.60;9.60;;;15.10;99.90;;;;;;4974011;28;20181;-51
2021/09/03 07:45:41;;;;;;;11.00;10.00;;;15.30;99.90;;;;;;4973771;28;20201;-52
2021/09/03 07:48:07;;;;;;;10.63;9.63;;;15.40;99.90;;;;;;4973408;28;20456;-47
2021/09/03 07:50:33;;;;;;;10.47;9.47;;;15.50;99.90;;;;;;4972617;28;20487;-51
2021/09/03 07:52:59;;;;;;;10.00;9.00;;;15.80;99.90;;;;;;4976275;28;20173;-52
2021/09/03 07:55:25;;;;;;;9.80;8.90;;;15.90;99.90;;;;;;4974369;28;20297;-51
2021/09/03 07:57:50;;;;;;;10.67;9.77;;;16.10;99.90;;;;;;4974497;28;20468;-50
2021/09/03 08:00:16;;;;;;;9.70;8.80;;;16.30;99.90;;;;;;4973128;28;20255;-51
2021/09/03 08:02:43;;;;;;;10.27;9.10;;;16.50;99.90;;;;;;4971405;28;20191;-49
2021/09/03 08:05:09;;;;;;;9.63;8.67;;;16.60;99.90;;;;;;4973788;28;20906;-53
2021/09/03 08:07:35;;;;;;;10.50;9.50;;;16.80;99.90;;;;;;4973102;28;20409;-51
2021/09/03 08:10:00;;;;;;;11.30;10.20;;;17.00;99.90;;;;;;4974818;28;20422;-49
2021/09/03 08:12:26;;;;;;;10.17;9.17;;;17.10;99.90;;;;;;4972157;28;20197;-50
2021/09/03 08:14:52;;;;;;;9.70;8.83;;;17.40;99.90;;;;;;4972599;28;20196;-50
2021/09/03 08:17:17;;;;;;;9.67;8.77;;;17.60;99.90;;;;;;4967093;28;20229;-53
2021/09/03 08:19:44;;;;;;;9.53;8.70;;;17.80;99.90;;;;;;4971507;28;20577;-54
2021/09/03 08:22:10;;;;;;;8.50;7.73;;;17.90;99.90;;;;;;4969671;28;20896;-52
2021/09/03 08:24:36;;;;;;;9.37;8.47;;;18.20;99.90;;;;;;4971885;28;20434;-52
2021/09/03 08:27:02;;;;;;;9.63;8.63;;;18.40;99.90;;;;;;4969244;28;20445;-49
2021/09/03 08:29:27;;;;;;;9.70;8.80;;;18.70;99.90;;;;;;4971164;28;20416;-49
2021/09/03 08:31:53;;;;;;;10.83;8.97;;;19.10;99.90;;;;;;4968999;28;20196;-51
2021/09/03 08:34:18;;;;;;;9.13;8.30;;;19.40;99.90;;;;;;4968589;28;20185;-51
2021/09/03 08:36:44;;;;;;;10.40;8.50;;;19.70;99.90;;;;;;4972158;28;20192;-50
2021/09/03 08:39:09;;;;;;;9.63;8.73;;;20.10;99.90;;;;;;4970997;28;20212;-52
2021/09/03 08:41:37;;;;;;;9.23;8.43;;;20.60;99.90;;;;;;4983383;28;20662;-53
2021/09/03 08:44:03;;;;;;;9.20;8.47;;;21.10;99.90;;;;;;4974597;28;20273;-50
2021/09/03 08:46:32;;;;;;;8.50;7.80;;;21.70;99.90;;;;;;4970955;28;20413;-50
2021/09/03 08:49:02;;;;;;;9.33;8.53;;;22.40;99.90;;;;;;4970608;28;20946;-49
2021/09/03 08:51:28;;;;;;;8.60;7.93;;;23.40;99.90;;;;;;4969787;28;20447;-50
2021/09/03 08:53:54;;;;;;;8.70;8.00;;;24.10;99.90;;;;;;4972336;28;20942;-54
2021/09/03 08:56:21;;;;;;;9.43;8.70;;;24.80;98.80;;;;;;4988322;28;20277;-51
2021/09/03 08:58:48;;;;;;;8.90;8.20;;;25.50;97.10;;;;;;4971194;28;20528;-49
2021/09/03 09:01:15;;;;;;;9.77;9.00;;;26.10;94.60;;;;;;4972003;28;20424;-52
2021/09/03 09:03:46;;;;;;;8.90;8.30;;;26.60;92.30;;;;;;4970465;28;20489;-56
2021/09/03 09:06:25;;;;;;;9.20;8.53;;;27.30;91.10;;;;;;4985687;28;20435;-52
2021/09/03 09:09:08;;;;;;;9.40;8.70;;;27.60;89.40;;;;;;4990295;28;20399;-50
2021/09/03 09:11:35;;;;;;;9.10;8.40;;;28.00;86.30;;;;;;4977216;28;20534;-51
2021/09/03 09:14:04;;;;;;;9.27;8.67;;;28.80;78.80;;;;;;4970579;28;20528;-52
2021/09/03 09:16:32;;;;;;;8.80;8.10;;;29.30;74.20;;;;;;4961580;28;20437;-51
2021/09/03 09:19:02;;;;;;;8.90;8.20;;;29.80;73.70;;;;;;4970516;28;20468;-50
2021/09/03 09:21:36;;;;;;;9.90;9.17;;;29.90;72.40;;;;;;4970727;28;20512;-50
2021/09/03 09:24:03;;;;;;;8.87;8.27;;;30.10;70.40;;;;;;4969743;28;20435;-57
2021/09/03 09:26:45;;;;;;;8.70;8.10;;;30.60;68.40;;;;;;4969045;28;20605;-52
2021/09/03 09:29:18;;;;;;;8.30;7.70;;;30.60;65.50;;;;;;4970176;28;20424;-51
2021/09/03 09:31:45;;;;;;;9.30;8.60;;;31.00;64.00;;;;;;4967161;28;20823;-55
2021/09/03 09:34:13;;;;;;;9.00;8.30;;;31.20;59.80;;;;;;4969375;28;20892;-52
2021/09/03 09:36:39;;;;;;;8.50;7.80;;;31.70;56.30;;;;;;4970372;28;20424;-53
2021/09/03 09:39:05;;;;;;;8.50;7.90;;;31.90;55.20;;;;;;4973840;28;20440;-53
2021/09/03 09:41:31;;;;;;;8.30;7.70;;;32.30;52.30;;;;;;4970002;28;20950;-51
2021/09/03 09:43:57;;;;;;;9.20;8.60;;;32.30;52.60;;;;;;4969895;28;20189;-51
2021/09/03 09:46:27;;;;;;;10.27;9.43;;;32.70;53.80;;;;;;4974368;28;20428;-55
2021/09/03 09:49:03;;;;;;;9.40;8.70;;;32.60;48.60;;;;;;4966494;28;20205;-49
2021/09/03 09:51:28;;;;;;;8.07;7.57;;;32.80;50.10;;;;;;4972395;28;20422;-50
2021/09/03 09:53:56;;;;;;;7.70;7.20;;;32.80;50.30;;;;;;4970260;28;20420;-49
2021/09/03 09:56:22;;;;;;;8.73;7.97;;;33.00;48.20;;;;;;4970439;28;20188;-53
2021/09/03 09:58:51;;;;;;;7.40;6.90;;;33.40;47.90;;;;;;4969607;28;20923;-53
2021/09/03 10:01:18;;;;;;;8.20;7.60;;;33.90;46.40;;;;;;4970900;28;20474;-55
2021/09/03 10:03:45;;;;;;;8.57;7.80;;;34.30;99.90;;;;;;4966530;28;20523;-50
2021/09/03 10:06:11;;;;;;;7.93;7.40;;;34.60;99.90;;;;;;4969143;28;20431;-55
2021/09/03 10:08:37;;;;;;;8.90;8.30;;;34.70;99.90;;;;;;4972561;28;20937;-53
2021/09/03 10:11:03;;;;;;;9.10;8.37;;;34.70;99.90;;;;;;4973842;28;20177;-52
2021/09/03 10:13:28;;;;;;;9.43;8.63;;;34.30;99.90;;;;;;4960431;28;20459;-53
2021/09/03 10:15:54;;;;;;;8.63;8.03;;;34.30;99.90;;;;;;4961751;28;20232;-54
2021/09/03 10:18:19;;;;;;;9.07;8.37;;;34.20;99.90;;;;;;4968900;28;20228;-53
2021/09/03 10:20:45;;;;;;;8.00;7.40;;;34.70;99.90;;;;;;4972109;28;20192;-49
2021/09/03 10:23:11;;;;;;;8.77;8.17;;;34.90;99.90;;;;;;4969628;28;20189;-50
2021/09/03 10:25:52;;;;;;;8.27;7.57;;;34.80;99.90;;;;;;4972609;28;20185;-53
2021/09/03 10:28:25;;;;;;;8.63;8.03;;;35.20;99.90;;;;;;4960655;28;20194;-52
2021/09/03 10:31:07;;;;;;;8.90;8.20;;;34.70;99.90;;;;;;4959554;28;20536;-53
2021/09/03 10:33:34;;;;;;;9.20;8.60;;;35.20;99.90;;;;;;4957807;28;20433;-51
2021/09/03 10:36:00;;;;;;;8.90;8.30;;;35.20;99.90;;;;;;4957847;28;20449;-54
2021/09/03 10:38:34;;;;;;;9.33;8.73;;;34.80;99.90;;;;;;4960998;28;20458;-53
2021/09/03 10:41:02;;;;;;;8.97;8.30;;;35.30;99.90;;;;;;4966928;28;20178;-51
2021/09/03 10:43:38;;;;;;;9.40;8.80;;;35.50;99.90;;;;;;4973022;28;20443;-49
2021/09/03 10:46:05;;;;;;;8.60;8.10;;;35.40;99.90;;;;;;4966141;28;20479;-51
2021/09/03 10:48:32;;;;;;;9.97;9.27;;;34.80;99.90;;;;;;4953997;29;20488;-50
2021/09/03 10:50:59;;;;;;;8.87;8.27;;;33.80;99.90;;;;;;4953861;28;20416;-53
2021/09/03 10:53:29;;;;;;;9.57;8.57;;;33.30;99.90;;;;;;4972126;28;20460;-52
2021/09/03 10:56:13;;;;;;;8.17;7.43;;;32.30;99.90;;;;;;4972922;28;20500;-48
2021/09/03 10:58:54;;;;;;;8.33;7.73;;;32.50;99.90;;;;;;4972466;28;20919;-52
2021/09/03 11:01:20;;;;;;;8.27;7.67;;;33.40;99.90;;;;;;4962625;28;20972;-51
2021/09/03 11:03:55;;;;;;;7.40;7.00;;;34.20;99.90;;;;;;4952731;28;20425;-54
2021/09/03 11:06:45;;;;;;;7.87;7.40;;;35.00;99.90;;;;;;4953370;28;20837;-53
2021/09/03 11:09:18;;;;;;;9.10;8.40;;;35.70;99.90;;;;;;4968816;28;20475;-49
2021/09/03 11:11:46;;;;;;;8.80;8.20;;;35.80;99.90;;;;;;4972865;28;20428;-51
2021/09/03 11:14:18;;;;;;;8.70;8.10;;;35.90;99.90;;;;;;4970656;28;20545;-49
2021/09/03 11:16:50;;;;;;;8.33;7.73;;;35.90;99.90;;;;;;4972787;28;20846;-48
2021/09/03 11:19:28;;;;;;;7.93;7.33;;;34.60;99.90;;;;;;4970935;28;20973;-51
2021/09/03 11:22:10;;;;;;;8.07;7.40;;;34.60;99.90;;;;;;4972626;28;20448;-51
2021/09/03 11:24:41;;;;;;;8.10;7.60;;;34.70;99.90;;;;;;4972481;28;20440;-51
2021/09/03 11:27:09;;;;;;;8.50;7.80;;;34.80;99.90;;;;;;4971656;28;20543;-52
2021/09/03 11:29:45;;;;;;;8.93;8.33;;;34.20;99.90;;;;;;4972840;28;20449;-52
2021/09/03 11:32:25;;;;;;;8.00;7.50;;;34.40;99.90;;;;;;4971471;28;20466;-46
2021/09/03 11:34:53;;;;;;;7.10;6.70;;;34.20;99.90;;;;;;4972166;28;20807;-54
2021/09/03 11:37:42;;;;;;;7.00;6.60;;;34.10;99.90;;;;;;4971953;28;20527;-52
2021/09/03 11:40:18;;;;;;;7.97;7.37;;;34.70;99.90;;;;;;4971776;28;20473;-50
2021/09/03 11:42:59;;;;;;;7.07;6.57;;;35.60;99.90;;;;;;4986130;28;20452;-53
2021/09/03 11:45:45;;;;;;;8.00;7.50;;;35.60;99.90;;;;;;4972163;28;20808;-52
2021/09/03 11:48:14;;;;;;;7.70;7.20;;;35.50;99.90;;;;;;4969494;28;20468;-51
2021/09/03 11:50:46;;;;;;;7.53;7.03;;;35.60;99.90;;;;;;4971969;28;20425;-53
2021/09/03 11:53:33;;;;;;;7.53;7.03;;;35.80;99.90;;;;;;4971436;28;20521;-50
2021/09/03 11:55:59;;;;;;;8.00;7.40;;;35.90;99.90;;;;;;4971924;28;20531;-54
2021/09/03 11:58:26;;;;;;;7.60;7.10;;;35.90;99.90;;;;;;4971498;28;21018;-50
2021/09/03 12:00:53;;;;;;;8.10;7.50;;;36.10;99.90;;;;;;4971641;28;20746;-55
2021/09/03 12:03:21;;;;;;;7.40;7.00;;;35.80;99.90;;;;;;4971593;28;20757;-51
2021/09/03 12:05:52;;;;;;;8.77;8.20;;;35.70;99.90;;;;;;4968861;28;20441;-55
2021/09/03 12:08:23;;;;;;;8.50;7.90;;;35.60;99.90;;;;;;4971521;28;21164;-53
2021/09/03 12:10:49;;;;;;;8.07;7.50;;;34.90;99.90;;;;;;4970067;28;20428;-54
2021/09/03 12:13:20;;;;;;;7.97;7.47;;;34.70;99.90;;;;;;4969982;28;20452;-51
2021/09/03 12:15:54;;;;;;;7.77;7.27;;;34.60;99.90;;;;;;4978129;28;20184;-53
2021/09/03 12:18:33;;;;;;;7.90;7.43;;;34.90;99.90;;;;;;4967451;28;20490;-53
2021/09/03 12:21:08;;;;;;;7.97;7.37;;;35.10;99.90;;;;;;4959480;28;20420;-56
2021/09/03 12:23:40;;;;;;;7.60;7.20;;;34.60;99.90;;;;;;4960628;28;20443;-56
2021/09/03 12:26:18;;;;;;;6.77;6.37;;;35.10;99.90;;;;;;4959374;28;20425;-56
2021/09/03 12:28:46;;;;;;;6.83;6.40;;;35.30;99.90;;;;;;4971204;28;20495;-56
2021/09/03 12:31:22;;;;;;;7.47;6.97;;;35.20;99.90;;;;;;4970785;28;20902;-51
2021/09/03 12:33:57;;;;;;;7.10;6.70;;;35.20;99.90;;;;;;4971130;28;20494;-50